Terminal Aerodrome Forecast
Issued by NWS

Home | Current Version | Previous Version | Text Only | Print | Product List | Glossary On
Versions: 1 2 3 4 5 6 7 8 9 10 11 12 13 14 15 16 17 18 19 20 21 22 23 24 25 26 27 28 29 30 31 32 33 34 35 36
154
FTUS41 KBOX 232344
TAFFMH
TAF
KFMH 232344Z 2400/2424 06020G35KT 4SM RA OVC009
     FM240500 07024G43KT 3SM RA OVC008 WS020/07055KT
     FM240600 07024G42KT 2SM +RA OVC008 WS020/08055KT
     FM241000 08021G37KT 1 1/2SM +RA OVC008
     FM241200 08016G26KT 1SM -RA OVC008
     FM241500 08009KT 2SM -RA OVC008
     FM242200 05004KT 5SM BR VCSH OVC008=

USA.gov is the U.S. government's official web portal to all federal, state and local government web resources and services.